sensor_id;sensor_type;location;lat;lon;timestamp;pressure;altitude;pressure_sealevel;temperature;humidity
7105;BME280;3594;42.152;24.714;2023-04-27T00:00:09;60946.06;;;11.79;100.00
7105;BME280;3594;42.152;24.714;2023-04-27T00:02:36;60883.09;;;11.64;100.00
7105;BME280;3594;42.152;24.714;2023-04-27T00:05:02;60913.59;;;11.82;100.00
7105;BME280;3594;42.152;24.714;2023-04-27T00:07:30;60929.56;;;11.78;100.00
7105;BME280;3594;42.152;24.714;2023-04-27T00:09:55;60917.91;;;11.79;100.00
7105;BME280;3594;42.152;24.714;2023-04-27T00:12:21;60906.75;;;11.85;100.00
7105;BME280;3594;42.152;24.714;2023-04-27T00:14:46;61043.34;;;11.70;100.00
7105;BME280;3594;42.152;24.714;2023-04-27T00:17:11;60957.53;;;11.66;100.00
7105;BME280;3594;42.152;24.714;2023-04-27T00:19:37;60915.41;;;11.74;100.00
7105;BME280;3594;42.152;24.714;2023-04-27T00:22:03;60945.97;;;11.88;100.00
7105;BME280;3594;42.152;24.714;2023-04-27T00:24:29;60898.31;;;11.77;100.00
7105;BME280;3594;42.152;24.714;2023-04-27T00:26:54;60953.16;;;11.78;100.00
7105;BME280;3594;42.152;24.714;2023-04-27T00:29:20;60934.84;;;11.89;100.00
7105;BME280;3594;42.152;24.714;2023-04-27T00:31:46;60884.13;;;11.74;100.00
7105;BME280;3594;42.152;24.714;2023-04-27T00:34:11;60862.63;;;11.64;100.00
7105;BME280;3594;42.152;24.714;2023-04-27T00:36:36;60871.03;;;11.50;100.00
7105;BME280;3594;42.152;24.714;2023-04-27T00:39:02;60873.34;;;11.43;100.00
7105;BME280;3594;42.152;24.714;2023-04-27T00:41:28;60885.25;;;11.75;100.00
7105;BME280;3594;42.152;24.714;2023-04-27T00:43:53;60886.16;;;11.69;100.00
7105;BME280;3594;42.152;24.714;2023-04-27T00:46:19;60908.53;;;11.77;100.00
7105;BME280;3594;42.152;24.714;2023-04-27T00:48:44;60918.69;;;11.57;100.00
7105;BME280;3594;42.152;24.714;2023-04-27T00:51:10;60883.16;;;11.29;100.00
7105;BME280;3594;42.152;24.714;2023-04-27T00:53:36;60948.44;;;11.67;100.00
7105;BME280;3594;42.152;24.714;2023-04-27T00:56:03;60922.25;;;11.41;100.00
7105;BME280;3594;42.152;24.714;2023-04-27T00:58:29;60927.75;;;11.30;100.00
7105;BME280;3594;42.152;24.714;2023-04-27T01:00:54;60887.19;;;11.53;100.00
7105;BME280;3594;42.152;24.714;2023-04-27T01:03:21;60895.75;;;11.47;100.00
7105;BME280;3594;42.152;24.714;2023-04-27T01:05:46;60842.72;;;11.39;100.00
7105;BME280;3594;42.152;24.714;2023-04-27T01:08:12;60847.94;;;11.04;100.00
7105;BME280;3594;42.152;24.714;2023-04-27T01:10:37;60858.97;;;11.07;100.00
7105;BME280;3594;42.152;24.714;2023-04-27T01:13:03;60831.13;;;11.35;100.00
7105;BME280;3594;42.152;24.714;2023-04-27T01:15:28;60867.63;;;11.47;100.00
7105;BME280;3594;42.152;24.714;2023-04-27T01:18:01;60851.22;;;11.17;100.00
7105;BME280;3594;42.152;24.714;2023-04-27T01:20:27;60921.66;;;11.45;100.00
7105;BME280;3594;42.152;24.714;2023-04-27T01:22:56;60838.78;;;11.35;100.00
7105;BME280;3594;42.152;24.714;2023-04-27T01:25:23;60890.72;;;11.13;100.00
7105;BME280;3594;42.152;24.714;2023-04-27T01:27:48;60932.84;;;11.35;100.00
7105;BME280;3594;42.152;24.714;2023-04-27T01:30:13;60833.91;;;11.38;99.21
7105;BME280;3594;42.152;24.714;2023-04-27T01:32:40;60872.75;;;11.47;98.60
7105;BME280;3594;42.152;24.714;2023-04-27T01:35:06;60923.66;;;11.45;98.97
7105;BME280;3594;42.152;24.714;2023-04-27T01:37:32;60865.50;;;11.06;99.10
7105;BME280;3594;42.152;24.714;2023-04-27T01:39:57;60878.63;;;11.30;97.99
7105;BME280;3594;42.152;24.714;2023-04-27T01:42:22;60888.19;;;11.13;99.23
7105;BME280;3594;42.152;24.714;2023-04-27T01:44:48;61080.56;;;11.34;98.10
7105;BME280;3594;42.152;24.714;2023-04-27T01:47:14;60840.06;;;10.97;98.30
7105;BME280;3594;42.152;24.714;2023-04-27T01:49:40;60873.47;;;11.34;97.64
7105;BME280;3594;42.152;24.714;2023-04-27T01:52:06;60851.13;;;11.26;99.63
7105;BME280;3594;42.152;24.714;2023-04-27T01:54:31;60844.78;;;11.08;99.13
7105;BME280;3594;42.152;24.714;2023-04-27T01:56:56;60853.09;;;11.00;98.54
7105;BME280;3594;42.152;24.714;2023-04-27T01:59:22;60847.97;;;11.00;98.64
7105;BME280;3594;42.152;24.714;2023-04-27T02:01:48;60891.41;;;11.30;100.00
7105;BME280;3594;42.152;24.714;2023-04-27T02:04:13;60885.78;;;11.25;98.29
7105;BME280;3594;42.152;24.714;2023-04-27T02:06:39;60823.75;;;11.33;96.97
7105;BME280;3594;42.152;24.714;2023-04-27T02:09:05;61079.81;;;11.22;97.88
7105;BME280;3594;42.152;24.714;2023-04-27T02:11:31;60879.47;;;11.28;96.41
7105;BME280;3594;42.152;24.714;2023-04-27T02:13:56;60989.75;;;10.87;96.55
7105;BME280;3594;42.152;24.714;2023-04-27T02:16:22;60852.09;;;10.85;95.86
7105;BME280;3594;42.152;24.714;2023-04-27T02:18:47;60874.00;;;10.80;98.27
7105;BME280;3594;42.152;24.714;2023-04-27T02:21:13;60843.06;;;10.82;98.17
7105;BME280;3594;42.152;24.714;2023-04-27T02:23:39;60816.94;;;10.81;97.25
7105;BME280;3594;42.152;24.714;2023-04-27T02:26:04;60846.53;;;10.76;98.48
7105;BME280;3594;42.152;24.714;2023-04-27T02:28:30;60879.09;;;11.14;98.23
7105;BME280;3594;42.152;24.714;2023-04-27T02:30:56;60863.75;;;11.14;99.17
7105;BME280;3594;42.152;24.714;2023-04-27T02:33:22;60861.47;;;11.12;98.92
7105;BME280;3594;42.152;24.714;2023-04-27T02:35:47;60840.81;;;10.80;99.30
7105;BME280;3594;42.152;24.714;2023-04-27T02:38:13;60820.13;;;10.47;98.14
7105;BME280;3594;42.152;24.714;2023-04-27T02:40:38;60798.38;;;10.64;99.24
7105;BME280;3594;42.152;24.714;2023-04-27T02:43:03;60824.22;;;10.62;99.57
7105;BME280;3594;42.152;24.714;2023-04-27T02:45:29;60799.16;;;10.72;97.42
7105;BME280;3594;42.152;24.714;2023-04-27T02:47:55;60835.56;;;10.93;98.44
7105;BME280;3594;42.152;24.714;2023-04-27T02:50:20;60863.50;;;10.82;98.78
7105;BME280;3594;42.152;24.714;2023-04-27T02:52:45;60838.34;;;10.71;100.00
7105;BME280;3594;42.152;24.714;2023-04-27T02:55:11;60870.28;;;10.83;97.96
7105;BME280;3594;42.152;24.714;2023-04-27T02:57:37;60831.25;;;10.71;100.00
7105;BME280;3594;42.152;24.714;2023-04-27T03:00:03;60813.03;;;10.73;100.00
7105;BME280;3594;42.152;24.714;2023-04-27T03:02:30;60876.91;;;11.03;99.25
7105;BME280;3594;42.152;24.714;2023-04-27T03:04:56;60828.97;;;10.69;98.27
7105;BME280;3594;42.152;24.714;2023-04-27T03:07:23;60832.75;;;10.61;99.15
7105;BME280;3594;42.152;24.714;2023-04-27T03:09:48;60865.22;;;10.79;99.66
7105;BME280;3594;42.152;24.714;2023-04-27T03:12:14;60850.13;;;11.11;98.11
7105;BME280;3594;42.152;24.714;2023-04-27T03:14:39;61109.41;;;11.17;98.07
7105;BME280;3594;42.152;24.714;2023-04-27T03:17:04;60864.34;;;11.10;98.94
7105;BME280;3594;42.152;24.714;2023-04-27T03:19:30;61058.13;;;10.96;97.80
7105;BME280;3594;42.152;24.714;2023-04-27T03:21:55;60839.81;;;10.95;99.59
7105;BME280;3594;42.152;24.714;2023-04-27T03:24:21;60839.84;;;10.60;96.41
7105;BME280;3594;42.152;24.714;2023-04-27T03:26:50;60863.28;;;11.04;96.01
7105;BME280;3594;42.152;24.714;2023-04-27T03:29:15;60828.06;;;11.05;95.14
7105;BME280;3594;42.152;24.714;2023-04-27T03:31:41;60868.69;;;10.73;94.95
7105;BME280;3594;42.152;24.714;2023-04-27T03:34:06;60829.06;;;10.60;95.09
7105;BME280;3594;42.152;24.714;2023-04-27T03:36:32;60902.22;;;11.00;95.35
7105;BME280;3594;42.152;24.714;2023-04-27T03:39:03;60828.13;;;10.96;96.82
7105;BME280;3594;42.152;24.714;2023-04-27T03:41:28;60775.84;;;10.49;96.42
7105;BME280;3594;42.152;24.714;2023-04-27T03:43:53;60862.31;;;10.85;96.88
7105;BME280;3594;42.152;24.714;2023-04-27T03:46:19;60838.72;;;10.59;95.67
7105;BME280;3594;42.152;24.714;2023-04-27T03:48:44;60790.19;;;10.59;96.13
7105;BME280;3594;42.152;24.714;2023-04-27T03:51:11;60771.16;;;10.63;96.03
7105;BME280;3594;42.152;24.714;2023-04-27T03:53:36;60856.69;;;10.80;98.14
7105;BME280;3594;42.152;24.714;2023-04-27T03:56:02;60827.50;;;10.75;97.03
7105;BME280;3594;42.152;24.714;2023-04-27T03:58:27;60861.66;;;10.94;95.37
7105;BME280;3594;42.152;24.714;2023-04-27T04:00:53;60875.47;;;10.74;95.41
7105;BME280;3594;42.152;24.714;2023-04-27T04:03:18;60831.31;;;11.17;95.22
7105;BME280;3594;42.152;24.714;2023-04-27T04:05:44;60880.75;;;11.16;94.93
7105;BME280;3594;42.152;24.714;2023-04-27T04:08:12;60902.03;;;11.19;95.25
7105;BME280;3594;42.152;24.714;2023-04-27T04:10:37;60992.13;;;11.10;94.20
7105;BME280;3594;42.152;24.714;2023-04-27T04:13:03;60865.09;;;10.92;93.35
7105;BME280;3594;42.152;24.714;2023-04-27T04:15:28;60878.78;;;11.41;92.73
7105;BME280;3594;42.152;24.714;2023-04-27T04:17:54;60953.88;;;11.61;91.97
7105;BME280;3594;42.152;24.714;2023-04-27T04:20:19;60907.25;;;11.65;88.86
7105;BME280;3594;42.152;24.714;2023-04-27T04:22:45;61025.19;;;12.27;88.27
7105;BME280;3594;42.152;24.714;2023-04-27T04:25:11;61063.97;;;12.75;82.90
7105;BME280;3594;42.152;24.714;2023-04-27T04:27:37;61096.19;;;13.25;82.42
7105;BME280;3594;42.152;24.714;2023-04-27T04:30:03;61061.41;;;13.26;81.29
7105;BME280;3594;42.152;24.714;2023-04-27T04:32:30;61084.03;;;12.87;80.16
7105;BME280;3594;42.152;24.714;2023-04-27T04:34:56;61026.03;;;12.55;84.89
7105;BME280;3594;42.152;24.714;2023-04-27T04:37:25;60962.19;;;12.12;83.81
7105;BME280;3594;42.152;24.714;2023-04-27T04:39:51;60956.25;;;12.09;87.63
7105;BME280;3594;42.152;24.714;2023-04-27T04:42:16;60980.16;;;12.32;84.95
7105;BME280;3594;42.152;24.714;2023-04-27T04:44:42;61010.09;;;12.55;86.87
7105;BME280;3594;42.152;24.714;2023-04-27T04:47:07;61013.41;;;12.37;85.38
7105;BME280;3594;42.152;24.714;2023-04-27T04:49:34;60980.69;;;12.37;85.02
7105;BME280;3594;42.152;24.714;2023-04-27T04:52:00;60990.03;;;12.14;85.33
7105;BME280;3594;42.152;24.714;2023-04-27T04:54:25;60996.06;;;12.37;84.56
7105;BME280;3594;42.152;24.714;2023-04-27T04:56:50;61021.88;;;12.70;84.38
7105;BME280;3594;42.152;24.714;2023-04-27T04:59:16;60966.09;;;12.20;86.31
7105;BME280;3594;42.152;24.714;2023-04-27T05:01:41;60971.72;;;12.50;85.60
7105;BME280;3594;42.152;24.714;2023-04-27T05:04:07;61014.13;;;12.74;84.48
7105;BME280;3594;42.152;24.714;2023-04-27T05:06:32;60973.28;;;12.35;84.56
7105;BME280;3594;42.152;24.714;2023-04-27T05:08:58;61039.69;;;12.54;83.38
7105;BME280;3594;42.152;24.714;2023-04-27T05:11:23;60920.81;;;12.23;86.06
7105;BME280;3594;42.152;24.714;2023-04-27T05:13:48;60935.06;;;11.97;84.64
7105;BME280;3594;42.152;24.714;2023-04-27T05:16:14;60969.13;;;12.29;83.94
7105;BME280;3594;42.152;24.714;2023-04-27T05:18:39;60950.56;;;12.08;83.46
7105;BME280;3594;42.152;24.714;2023-04-27T05:21:12;60986.72;;;12.31;84.24
7105;BME280;3594;42.152;24.714;2023-04-27T05:23:38;61000.44;;;12.25;85.64
7105;BME280;3594;42.152;24.714;2023-04-27T05:26:11;60935.72;;;12.13;84.32
7105;BME280;3594;42.152;24.714;2023-04-27T05:28:36;61025.50;;;12.50;85.71
7105;BME280;3594;42.152;24.714;2023-04-27T05:31:02;60929.34;;;12.21;81.20
7105;BME280;3594;42.152;24.714;2023-04-27T05:33:27;61182.19;;;12.39;84.01
7105;BME280;3594;42.152;24.714;2023-04-27T05:35:52;60994.03;;;12.63;82.41
7105;BME280;3594;42.152;24.714;2023-04-27T05:38:18;61020.84;;;12.60;80.43
7105;BME280;3594;42.152;24.714;2023-04-27T05:40:43;61053.34;;;12.82;78.85
7105;BME280;3594;42.152;24.714;2023-04-27T05:43:09;61051.19;;;12.71;78.03
7105;BME280;3594;42.152;24.714;2023-04-27T05:45:38;61022.91;;;12.80;79.12
7105;BME280;3594;42.152;24.714;2023-04-27T05:48:03;61075.31;;;12.76;77.92
7105;BME280;3594;42.152;24.714;2023-04-27T05:50:29;60983.59;;;12.56;81.86
7105;BME280;3594;42.152;24.714;2023-04-27T05:52:54;60997.94;;;12.46;76.20
7105;BME280;3594;42.152;24.714;2023-04-27T05:55:20;61007.84;;;12.53;76.65
7105;BME280;3594;42.152;24.714;2023-04-27T05:57:45;61222.13;;;12.59;75.98
7105;BME280;3594;42.152;24.714;2023-04-27T06:00:11;60938.84;;;12.14;77.77
7105;BME280;3594;42.152;24.714;2023-04-27T06:02:37;60943.63;;;12.41;77.61
7105;BME280;3594;42.152;24.714;2023-04-27T06:05:02;60978.22;;;12.03;79.54
7105;BME280;3594;42.152;24.714;2023-04-27T06:07:28;60949.66;;;12.14;79.89
7105;BME280;3594;42.152;24.714;2023-04-27T06:09:53;61108.38;;;12.14;78.79
7105;BME280;3594;42.152;24.714;2023-04-27T06:12:19;60939.00;;;12.00;78.37
7105;BME280;3594;42.152;24.714;2023-04-27T06:14:44;60917.09;;;12.01;79.27
7105;BME280;3594;42.152;24.714;2023-04-27T06:17:10;60994.91;;;12.36;80.51
7105;BME280;3594;42.152;24.714;2023-04-27T06:19:35;60982.47;;;12.05;78.54
7105;BME280;3594;42.152;24.714;2023-04-27T06:22:00;61001.16;;;12.37;78.67
7105;BME280;3594;42.152;24.714;2023-04-27T06:24:27;60980.13;;;12.37;80.31
7105;BME280;3594;42.152;24.714;2023-04-27T06:26:52;60951.94;;;12.37;80.86
7105;BME280;3594;42.152;24.714;2023-04-27T06:29:18;61145.34;;;12.20;80.11
7105;BME280;3594;42.152;24.714;2023-04-27T06:31:44;60980.63;;;12.42;78.34
7105;BME280;3594;42.152;24.714;2023-04-27T06:34:09;60973.00;;;12.12;80.92
7105;BME280;3594;42.152;24.714;2023-04-27T06:36:35;60979.34;;;12.04;79.40
7105;BME280;3594;42.152;24.714;2023-04-27T06:39:00;60954.16;;;12.44;78.69
7105;BME280;3594;42.152;24.714;2023-04-27T06:41:26;60978.41;;;12.61;80.35
7105;BME280;3594;42.152;24.714;2023-04-27T06:43:52;61034.13;;;12.69;78.94
7105;BME280;3594;42.152;24.714;2023-04-27T06:46:18;60970.22;;;12.56;79.38
7105;BME280;3594;42.152;24.714;2023-04-27T06:48:44;61027.59;;;12.91;78.87
7105;BME280;3594;42.152;24.714;2023-04-27T06:51:11;61069.28;;;13.08;77.95
7105;BME280;3594;42.152;24.714;2023-04-27T06:53:37;60981.84;;;12.84;78.92
7105;BME280;3594;42.152;24.714;2023-04-27T06:56:03;61191.41;;;12.89;78.86
7105;BME280;3594;42.152;24.714;2023-04-27T06:58:28;61237.44;;;13.02;78.75
7105;BME280;3594;42.152;24.714;2023-04-27T07:00:53;60995.81;;;12.81;76.85
7105;BME280;3594;42.152;24.714;2023-04-27T07:03:20;61081.97;;;13.21;78.09
7105;BME280;3594;42.152;24.714;2023-04-27T07:05:46;61139.22;;;13.50;77.83
7105;BME280;3594;42.152;24.714;2023-04-27T07:08:12;61069.88;;;13.54;76.41
7105;BME280;3594;42.152;24.714;2023-04-27T07:10:37;61075.06;;;13.50;75.70
7105;BME280;3594;42.152;24.714;2023-04-27T07:13:03;61082.16;;;13.75;76.67
7105;BME280;3594;42.152;24.714;2023-04-27T07:15:29;61081.72;;;13.65;75.98
7105;BME280;3594;42.152;24.714;2023-04-27T07:17:55;61165.31;;;14.10;74.63
7105;BME280;3594;42.152;24.714;2023-04-27T07:20:21;61163.69;;;14.04;75.79
7105;BME280;3594;42.152;24.714;2023-04-27T07:22:46;61205.38;;;14.25;77.45
7105;BME280;3594;42.152;24.714;2023-04-27T07:25:12;61213.41;;;14.23;74.56
7105;BME280;3594;42.152;24.714;2023-04-27T07:27:37;61159.78;;;14.42;74.02
7105;BME280;3594;42.152;24.714;2023-04-27T07:30:04;61199.72;;;14.45;73.16
7105;BME280;3594;42.152;24.714;2023-04-27T07:32:31;61183.06;;;14.74;71.74
7105;BME280;3594;42.152;24.714;2023-04-27T07:34:57;61168.81;;;14.50;68.24
7105;BME280;3594;42.152;24.714;2023-04-27T07:37:22;61209.53;;;14.61;67.92
7105;BME280;3594;42.152;24.714;2023-04-27T07:39:49;61219.03;;;14.53;68.40
7105;BME280;3594;42.152;24.714;2023-04-27T07:42:16;61182.22;;;14.92;67.24
7105;BME280;3594;42.152;24.714;2023-04-27T07:44:42;61202.69;;;14.80;64.55
7105;BME280;3594;42.152;24.714;2023-04-27T07:47:08;61219.47;;;14.63;65.61
7105;BME280;3594;42.152;24.714;2023-04-27T07:49:35;61272.09;;;14.59;66.34
7105;BME280;3594;42.152;24.714;2023-04-27T07:52:01;61193.94;;;14.49;66.44
7105;BME280;3594;42.152;24.714;2023-04-27T07:54:27;61184.16;;;14.75;66.29
7105;BME280;3594;42.152;24.714;2023-04-27T07:56:52;61281.88;;;15.21;69.19
7105;BME280;3594;42.152;24.714;2023-04-27T07:59:18;61339.75;;;15.59;62.65
7105;BME280;3594;42.152;24.714;2023-04-27T08:01:44;61308.22;;;15.63;63.97
7105;BME280;3594;42.152;24.714;2023-04-27T08:04:09;61272.28;;;15.33;61.86
7105;BME280;3594;42.152;24.714;2023-04-27T08:06:36;61344.06;;;15.77;62.10
7105;BME280;3594;42.152;24.714;2023-04-27T08:09:02;61369.09;;;16.11;62.17
7105;BME280;3594;42.152;24.714;2023-04-27T08:11:28;61347.97;;;16.06;61.92
7105;BME280;3594;42.152;24.714;2023-04-27T08:13:54;61386.13;;;16.42;61.01
7105;BME280;3594;42.152;24.714;2023-04-27T08:16:20;61398.94;;;16.47;62.59
7105;BME280;3594;42.152;24.714;2023-04-27T08:18:45;61396.88;;;16.31;60.97
7105;BME280;3594;42.152;24.714;2023-04-27T08:21:10;61355.38;;;16.49;60.54
7105;BME280;3594;42.152;24.714;2023-04-27T08:23:36;61420.53;;;16.61;58.65
7105;BME280;3594;42.152;24.714;2023-04-27T08:26:03;61364.53;;;16.48;59.15
7105;BME280;3594;42.152;24.714;2023-04-27T08:28:28;61417.81;;;16.70;58.31
7105;BME280;3594;42.152;24.714;2023-04-27T08:30:54;61485.22;;;16.89;59.65
7105;BME280;3594;42.152;24.714;2023-04-27T08:33:19;61479.94;;;17.35;55.77
7105;BME280;3594;42.152;24.714;2023-04-27T08:35:44;61463.31;;;17.34;56.26
7105;BME280;3594;42.152;24.714;2023-04-27T08:38:10;61446.94;;;16.99;58.39
7105;BME280;3594;42.152;24.714;2023-04-27T08:40:41;61469.59;;;17.19;54.76
7105;BME280;3594;42.152;24.714;2023-04-27T08:43:06;61514.47;;;17.29;56.78
7105;BME280;3594;42.152;24.714;2023-04-27T08:45:32;61456.97;;;17.17;55.35
7105;BME280;3594;42.152;24.714;2023-04-27T08:47:57;61481.66;;;17.37;55.00
7105;BME280;3594;42.152;24.714;2023-04-27T08:50:23;61509.28;;;17.71;55.50
7105;BME280;3594;42.152;24.714;2023-04-27T08:52:49;61552.03;;;18.27;54.50
7105;BME280;3594;42.152;24.714;2023-04-27T08:55:15;61548.97;;;18.38;55.23
7105;BME280;3594;42.152;24.714;2023-04-27T08:57:41;61573.00;;;18.09;53.88
7105;BME280;3594;42.152;24.714;2023-04-27T09:00:07;61486.69;;;17.46;53.98
7105;BME280;3594;42.152;24.714;2023-04-27T09:02:45;61671.06;;;17.35;54.54
7105;BME280;3594;42.152;24.714;2023-04-27T09:05:18;61443.47;;;17.37;58.05
7105;BME280;3594;42.152;24.714;2023-04-27T09:08:01;61537.06;;;17.75;55.54
7105;BME280;3594;42.152;24.714;2023-04-27T09:10:29;61531.97;;;18.07;51.80
7105;BME280;3594;42.152;24.714;2023-04-27T09:12:59;61610.28;;;18.51;52.10
7105;BME280;3594;42.152;24.714;2023-04-27T09:15:26;61505.22;;;17.72;53.59
7105;BME280;3594;42.152;24.714;2023-04-27T09:17:57;61574.16;;;18.10;54.56
7105;BME280;3594;42.152;24.714;2023-04-27T09:20:23;61616.47;;;18.62;52.96
7105;BME280;3594;42.152;24.714;2023-04-27T09:22:51;61592.00;;;18.44;52.81
7105;BME280;3594;42.152;24.714;2023-04-27T09:25:26;61621.50;;;18.71;51.63
7105;BME280;3594;42.152;24.714;2023-04-27T09:27:52;61537.34;;;18.30;51.63
7105;BME280;3594;42.152;24.714;2023-04-27T09:30:18;61683.88;;;18.32;50.36
7105;BME280;3594;42.152;24.714;2023-04-27T09:32:58;61568.19;;;18.23;53.04
7105;BME280;3594;42.152;24.714;2023-04-27T09:35:27;61710.28;;;17.70;52.90
7105;BME280;3594;42.152;24.714;2023-04-27T09:37:53;61458.44;;;17.53;55.37
7105;BME280;3594;42.152;24.714;2023-04-27T09:40:21;61471.50;;;17.44;53.01
7105;BME280;3594;42.152;24.714;2023-04-27T09:42:54;61426.28;;;16.99;57.10
7105;BME280;3594;42.152;24.714;2023-04-27T09:45:25;61466.00;;;17.09;55.16
7105;BME280;3594;42.152;24.714;2023-04-27T09:47:50;61443.28;;;17.14;57.05
7105;BME280;3594;42.152;24.714;2023-04-27T09:50:16;61436.66;;;17.15;56.03
7105;BME280;3594;42.152;24.714;2023-04-27T09:52:42;61521.69;;;17.45;56.09
7105;BME280;3594;42.152;24.714;2023-04-27T09:55:15;61501.69;;;17.61;54.69
7105;BME280;3594;42.152;24.714;2023-04-27T10:08:50;61567.66;;;18.39;52.67
7105;BME280;3594;42.152;24.714;2023-04-27T10:11:16;61530.59;;;18.20;50.79
7105;BME280;3594;42.152;24.714;2023-04-27T10:13:51;61531.06;;;17.92;50.27
7105;BME280;3594;42.152;24.714;2023-04-27T10:16:18;61502.97;;;17.70;50.75
7105;BME280;3594;42.152;24.714;2023-04-27T10:18:52;61511.41;;;17.82;52.35
7105;BME280;3594;42.152;24.714;2023-04-27T10:21:18;61495.22;;;17.70;52.33
7105;BME280;3594;42.152;24.714;2023-04-27T10:23:47;61553.97;;;17.94;54.49
7105;BME280;3594;42.152;24.714;2023-04-27T10:26:20;61555.59;;;17.84;55.30
7105;BME280;3594;42.152;24.714;2023-04-27T10:28:55;61537.94;;;17.73;56.76
7105;BME280;3594;42.152;24.714;2023-04-27T10:31:26;61442.84;;;17.41;60.07
7105;BME280;3594;42.152;24.714;2023-04-27T10:33:53;61506.13;;;17.70;61.81
7105;BME280;3594;42.152;24.714;2023-04-27T10:36:34;61461.16;;;17.64;61.60
7105;BME280;3594;42.152;24.714;2023-04-27T10:39:01;61464.00;;;17.46;58.95
7105;BME280;3594;42.152;24.714;2023-04-27T10:41:37;61508.22;;;17.65;56.01
7105;BME280;3594;42.152;24.714;2023-04-27T10:44:25;61588.81;;;18.28;55.13
7105;BME280;3594;42.152;24.714;2023-04-27T10:46:53;61535.81;;;17.99;52.40
7105;BME280;3594;42.152;24.714;2023-04-27T10:49:21;61566.31;;;18.15;52.29
7105;BME280;3594;42.152;24.714;2023-04-27T10:51:49;61565.03;;;18.23;53.68
7105;BME280;3594;42.152;24.714;2023-04-27T10:54:14;61580.25;;;18.25;52.88
7105;BME280;3594;42.152;24.714;2023-04-27T10:56:40;61604.97;;;18.61;51.83
7105;BME280;3594;42.152;24.714;2023-04-27T10:59:06;61606.34;;;18.64;49.44
7105;BME280;3594;42.152;24.714;2023-04-27T11:01:32;61664.63;;;18.88;50.31
7105;BME280;3594;42.152;24.714;2023-04-27T11:03:59;61665.25;;;19.21;47.65
7105;BME280;3594;42.152;24.714;2023-04-27T11:06:25;61580.56;;;18.23;49.74
7105;BME280;3594;42.152;24.714;2023-04-27T11:08:52;61620.88;;;18.17;52.45
7105;BME280;3594;42.152;24.714;2023-04-27T11:11:18;61622.94;;;18.70;49.00
7105;BME280;3594;42.152;24.714;2023-04-27T11:13:48;61612.03;;;18.69;51.33
7105;BME280;3594;42.152;24.714;2023-04-27T11:16:14;61868.53;;;18.92;49.33
7105;BME280;3594;42.152;24.714;2023-04-27T11:18:40;61670.25;;;18.98;50.65
7105;BME280;3594;42.152;24.714;2023-04-27T11:21:10;61485.44;;;18.07;48.74
7105;BME280;3594;42.152;24.714;2023-04-27T11:23:39;61577.34;;;18.43;48.99
7105;BME280;3594;42.152;24.714;2023-04-27T11:26:21;61579.53;;;18.33;49.75
7105;BME280;3594;42.152;24.714;2023-04-27T11:29:08;61550.47;;;18.53;49.61
7105;BME280;3594;42.152;24.714;2023-04-27T11:34:06;61525.75;;;17.81;48.99
7105;BME280;3594;42.152;24.714;2023-04-27T11:36:31;61654.91;;;17.85;46.70
7105;BME280;3594;42.152;24.714;2023-04-27T11:38:57;61564.34;;;18.47;47.88
7105;BME280;3594;42.152;24.714;2023-04-27T11:41:35;61720.09;;;18.11;46.74
7105;BME280;3594;42.152;24.714;2023-04-27T11:44:08;61587.78;;;18.38;48.77
7105;BME280;3594;42.152;24.714;2023-04-27T11:46:35;61605.78;;;18.64;46.21
7105;BME280;3594;42.152;24.714;2023-04-27T11:49:05;61591.25;;;18.37;44.15
7105;BME280;3594;42.152;24.714;2023-04-27T11:51:31;61597.09;;;18.49;44.87
7105;BME280;3594;42.152;24.714;2023-04-27T11:54:06;61576.94;;;18.33;43.14
7105;BME280;3594;42.152;24.714;2023-04-27T11:56:37;61623.66;;;18.40;44.39
7105;BME280;3594;42.152;24.714;2023-04-27T11:59:03;61614.56;;;18.90;45.92
7105;BME280;3594;42.152;24.714;2023-04-27T12:01:32;61612.03;;;18.69;45.66
7105;BME280;3594;42.152;24.714;2023-04-27T12:04:00;61613.50;;;18.84;44.19
7105;BME280;3594;42.152;24.714;2023-04-27T12:06:27;61615.66;;;18.75;45.67
7105;BME280;3594;42.152;24.714;2023-04-27T12:08:56;61558.84;;;17.96;45.02
7105;BME280;3594;42.152;24.714;2023-04-27T12:11:25;61506.69;;;17.71;44.39
7105;BME280;3594;42.152;24.714;2023-04-27T12:13:52;61559.78;;;18.27;44.80
7105;BME280;3594;42.152;24.714;2023-04-27T12:16:18;61845.66;;;18.61;44.99
7105;BME280;3594;42.152;24.714;2023-04-27T12:18:48;61621.22;;;18.68;43.84
7105;BME280;3594;42.152;24.714;2023-04-27T12:21:14;61621.94;;;18.60;42.80
7105;BME280;3594;42.152;24.714;2023-04-27T12:23:40;61563.63;;;18.40;43.78
7105;BME280;3594;42.152;24.714;2023-04-27T12:26:05;61558.66;;;18.26;42.86
7105;BME280;3594;42.152;24.714;2023-04-27T12:28:31;61582.09;;;18.54;43.76
7105;BME280;3594;42.152;24.714;2023-04-27T12:30:56;61611.09;;;19.08;43.88
7105;BME280;3594;42.152;24.714;2023-04-27T12:33:22;61587.28;;;18.70;41.15
7105;BME280;3594;42.152;24.714;2023-04-27T12:35:47;61812.44;;;18.70;44.05
7105;BME280;3594;42.152;24.714;2023-04-27T12:38:12;61678.03;;;19.14;42.41
7105;BME280;3594;42.152;24.714;2023-04-27T12:40:38;61627.03;;;19.17;41.60
7105;BME280;3594;42.152;24.714;2023-04-27T12:43:03;61667.75;;;19.10;41.82
7105;BME280;3594;42.152;24.714;2023-04-27T12:45:28;61593.91;;;18.69;44.51
7105;BME280;3594;42.152;24.714;2023-04-27T12:47:54;61563.78;;;18.31;42.09
7105;BME280;3594;42.152;24.714;2023-04-27T12:50:19;61373.38;;;16.91;47.40
7105;BME280;3594;42.152;24.714;2023-04-27T12:52:46;61370.84;;;16.49;48.70
7105;BME280;3594;42.152;24.714;2023-04-27T12:55:12;61319.56;;;16.10;50.50
7105;BME280;3594;42.152;24.714;2023-04-27T12:57:38;61336.16;;;16.32;49.61
7105;BME280;3594;42.152;24.714;2023-04-27T13:00:04;61336.84;;;16.23;49.94
7105;BME280;3594;42.152;24.714;2023-04-27T13:02:34;61280.69;;;16.24;50.32
7105;BME280;3594;42.152;24.714;2023-04-27T13:04:59;61466.97;;;16.61;49.88
7105;BME280;3594;42.152;24.714;2023-04-27T13:07:25;61604.56;;;16.60;48.29
7105;BME280;3594;42.152;24.714;2023-04-27T13:09:50;61403.97;;;16.76;48.29
7105;BME280;3594;42.152;24.714;2023-04-27T13:12:16;61450.16;;;16.95;49.38
7105;BME280;3594;42.152;24.714;2023-04-27T13:14:41;61396.78;;;16.56;50.13
7105;BME280;3594;42.152;24.714;2023-04-27T13:17:07;61366.19;;;16.54;53.62
7105;BME280;3594;42.152;24.714;2023-04-27T13:19:33;61338.03;;;16.41;54.89